Time;durP1;ratioP1;P1;durP2;ratioP2;P2;SDS_P1;SDS_P2;PMS_P1;PMS_P2;Temp;Humidity;BMP_temperature;BMP_pressure;BME280_temperature;BME280_humidity;BME280_pressure;Samples;Min_cycle;Max_cycle;Signal;HPM_P1;HPM_P2
2023/10/30 00:01:42;;;;;;;3.90;2.03;;;10.10;99.90;;;;;;5053087;28;20045;-66
2023/10/30 00:04:09;;;;;;;4.35;1.95;;;10.00;99.90;;;;;;5053306;28;20111;-65
2023/10/30 00:06:35;;;;;;;5.30;1.98;;;10.00;99.90;;;;;;5036596;28;20041;-65
2023/10/30 00:09:02;;;;;;;4.07;1.52;;;10.00;99.90;;;;;;5053327;28;20052;-65
2023/10/30 00:11:28;;;;;;;4.25;2.00;;;9.90;99.90;;;;;;5052940;28;20127;-65
2023/10/30 00:13:54;;;;;;;3.20;2.03;;;9.90;99.90;;;;;;5053354;28;20056;-66
2023/10/30 00:16:21;;;;;;;4.20;1.73;;;9.80;99.90;;;;;;5053409;28;20051;-66
2023/10/30 00:18:48;;;;;;;3.65;2.00;;;9.90;99.90;;;;;;5061038;28;20476;-66
2023/10/30 00:21:15;;;;;;;4.65;2.00;;;9.80;99.90;;;;;;5072869;28;20071;-66
2023/10/30 00:23:41;;;;;;;3.95;1.63;;;9.80;99.90;;;;;;5073530;28;20048;-66
2023/10/30 00:26:08;;;;;;;3.15;1.80;;;9.80;99.90;;;;;;5073033;28;20069;-66
2023/10/30 00:28:34;;;;;;;5.85;1.80;;;9.70;99.90;;;;;;5067207;28;20052;-65
2023/10/30 00:31:01;;;;;;;4.80;1.83;;;9.70;99.90;;;;;;5035695;28;20056;-66
2023/10/30 00:33:28;;;;;;;3.88;2.10;;;9.80;99.90;;;;;;5069755;28;20063;-65
2023/10/30 00:35:54;;;;;;;5.72;2.08;;;9.70;99.90;;;;;;5052593;28;20068;-66
2023/10/30 00:38:20;;;;;;;4.28;2.38;;;9.70;99.90;;;;;;5056399;28;20047;-66
2023/10/30 00:40:47;;;;;;;3.83;1.63;;;9.70;99.90;;;;;;5072734;28;20052;-67
2023/10/30 00:43:13;;;;;;;5.35;2.45;;;9.70;99.90;;;;;;5072948;28;20316;-65
2023/10/30 00:45:39;;;;;;;3.22;1.90;;;9.70;99.90;;;;;;5090462;28;20048;-66
2023/10/30 00:48:06;;;;;;;4.53;1.95;;;9.70;99.90;;;;;;5072675;28;20044;-65
2023/10/30 00:50:33;;;;;;;4.15;1.73;;;9.70;99.90;;;;;;5072537;28;20194;-65
2023/10/30 00:53:00;;;;;;;5.40;2.00;;;9.70;99.90;;;;;;5055664;28;20040;-66
2023/10/30 00:55:26;;;;;;;7.68;2.30;;;9.70;99.90;;;;;;5072919;28;20056;-65
2023/10/30 00:57:53;;;;;;;5.07;2.08;;;9.70;99.90;;;;;;5072389;28;20044;-66
2023/10/30 01:00:19;;;;;;;3.45;2.20;;;9.70;99.90;;;;;;5052411;28;20135;-65
2023/10/30 01:02:45;;;;;;;3.80;1.70;;;9.70;99.90;;;;;;5052548;28;20102;-66
2023/10/30 01:05:11;;;;;;;4.68;1.90;;;9.70;99.90;;;;;;5052285;28;20052;-66
2023/10/30 01:07:38;;;;;;;2.72;1.70;;;9.70;99.90;;;;;;5052323;28;20048;-66
2023/10/30 01:10:04;;;;;;;4.55;2.00;;;9.70;99.90;;;;;;5053532;28;20052;-66
2023/10/30 01:12:30;;;;;;;5.43;1.92;;;9.60;99.90;;;;;;5056202;28;20125;-65
2023/10/30 01:14:57;;;;;;;4.63;1.83;;;9.60;99.90;;;;;;5072536;28;20051;-66
2023/10/30 01:17:23;;;;;;;5.25;2.03;;;9.60;99.90;;;;;;5056023;28;20162;-66
2023/10/30 01:19:49;;;;;;;8.02;2.35;;;9.60;99.90;;;;;;5038966;28;20044;-66
2023/10/30 01:22:15;;;;;;;5.13;2.10;;;9.60;99.90;;;;;;5052305;28;20040;-67
2023/10/30 01:24:41;;;;;;;6.13;2.10;;;9.50;99.90;;;;;;5052484;28;20508;-65
2023/10/30 01:27:08;;;;;;;4.50;2.10;;;9.50;99.90;;;;;;5052223;28;20436;-67
2023/10/30 01:29:34;;;;;;;3.75;1.92;;;9.50;99.90;;;;;;5065523;28;20060;-66
2023/10/30 01:32:00;;;;;;;5.57;2.40;;;9.50;99.90;;;;;;5072103;28;20356;-66
2023/10/30 01:34:26;;;;;;;6.30;2.15;;;9.40;99.90;;;;;;5072306;28;20117;-66
2023/10/30 01:36:53;;;;;;;5.55;1.70;;;9.40;99.90;;;;;;5072049;28;20040;-66
2023/10/30 01:39:19;;;;;;;5.20;2.33;;;9.30;99.90;;;;;;5059799;28;20123;-67
2023/10/30 01:41:45;;;;;;;5.38;2.53;;;9.30;99.90;;;;;;5051842;28;20412;-66
2023/10/30 01:44:11;;;;;;;7.40;2.58;;;9.30;99.90;;;;;;5054580;28;20064;-66
2023/10/30 01:46:38;;;;;;;7.93;3.00;;;9.30;99.90;;;;;;5055530;28;20056;-67
2023/10/30 01:49:04;;;;;;;6.10;1.83;;;9.30;99.90;;;;;;5048572;28;20056;-66
2023/10/30 01:51:31;;;;;;;5.63;1.92;;;9.40;99.90;;;;;;5075330;28;20372;-67
2023/10/30 01:53:57;;;;;;;5.93;1.90;;;9.30;99.90;;;;;;5075863;28;20056;-65
2023/10/30 01:56:25;;;;;;;4.72;2.50;;;9.30;99.90;;;;;;5075325;28;20048;-65
2023/10/30 01:58:52;;;;;;;5.65;2.15;;;9.40;99.90;;;;;;5051022;28;20056;-66
2023/10/30 02:01:18;;;;;;;4.10;2.00;;;9.20;99.90;;;;;;5055048;28;20487;-66
2023/10/30 02:03:44;;;;;;;6.75;2.17;;;9.30;99.90;;;;;;5039062;28;20052;-66
2023/10/30 02:06:10;;;;;;;4.63;1.90;;;9.30;99.90;;;;;;5055220;28;20045;-65
2023/10/30 02:08:37;;;;;;;6.13;2.22;;;9.30;99.90;;;;;;5056212;28;20136;-65
2023/10/30 02:11:03;;;;;;;5.85;1.98;;;9.20;99.90;;;;;;5055136;28;20040;-65
2023/10/30 02:13:29;;;;;;;5.15;2.30;;;9.30;99.90;;;;;;5055357;28;20045;-66
2023/10/30 02:15:56;;;;;;;6.60;2.40;;;9.30;99.90;;;;;;5055313;28;20083;-67
2023/10/30 02:18:23;;;;;;;8.68;3.08;;;9.30;99.90;;;;;;5058333;28;20047;-66
2023/10/30 02:20:49;;;;;;;7.53;2.33;;;9.30;99.90;;;;;;5092895;28;20051;-66
2023/10/30 02:23:15;;;;;;;7.35;2.17;;;9.30;99.90;;;;;;5075265;28;20055;-65
2023/10/30 02:25:42;;;;;;;6.32;1.95;;;9.50;99.90;;;;;;5075034;28;20384;-66
2023/10/30 02:28:08;;;;;;;4.95;2.00;;;9.50;99.90;;;;;;5074832;28;20067;-66
2023/10/30 02:30:34;;;;;;;4.80;1.65;;;9.40;99.90;;;;;;5075320;28;20261;-65
2023/10/30 02:33:00;;;;;;;5.95;2.00;;;9.40;99.90;;;;;;5058633;28;20051;-65
2023/10/30 02:35:27;;;;;;;8.85;2.53;;;9.50;99.90;;;;;;5074905;28;20058;-66
2023/10/30 02:37:53;;;;;;;5.32;2.00;;;9.50;99.90;;;;;;5074658;28;20106;-66
2023/10/30 02:40:19;;;;;;;5.55;2.03;;;9.50;99.90;;;;;;5054361;28;20388;-66
2023/10/30 02:42:45;;;;;;;6.20;2.03;;;9.60;99.90;;;;;;5038419;28;20106;-66
2023/10/30 02:45:18;;;;;;;5.75;1.98;;;9.60;99.90;;;;;;5054381;28;20397;-65
2023/10/30 02:47:44;;;;;;;6.60;1.77;;;9.40;99.90;;;;;;5054439;28;20064;-65
2023/10/30 02:50:12;;;;;;;7.78;2.60;;;9.50;99.90;;;;;;5055182;28;20122;-66
2023/10/30 02:52:38;;;;;;;5.43;2.15;;;9.60;99.90;;;;;;5054535;28;20053;-65
2023/10/30 02:55:06;;;;;;;7.95;2.28;;;9.50;99.90;;;;;;5053900;28;20476;-66
2023/10/30 02:57:32;;;;;;;5.60;1.90;;;9.60;99.90;;;;;;5054524;28;20063;-64
2023/10/30 02:59:58;;;;;;;6.38;2.22;;;9.60;99.90;;;;;;5071025;28;20357;-66
2023/10/30 03:02:24;;;;;;;9.10;2.60;;;9.60;99.90;;;;;;5108159;28;20384;-66
2023/10/30 03:04:51;;;;;;;6.50;1.90;;;9.60;99.90;;;;;;5074573;28;20048;-65
2023/10/30 03:07:17;;;;;;;6.15;2.35;;;9.60;99.90;;;;;;5108063;28;20048;-67
2023/10/30 03:09:43;;;;;;;8.68;2.45;;;9.60;99.90;;;;;;5091681;28;20456;-66
2023/10/30 03:12:11;;;;;;;7.32;2.08;;;9.50;99.90;;;;;;5074500;28;20066;-66
2023/10/30 03:14:37;;;;;;;5.32;2.13;;;9.60;99.90;;;;;;5057697;28;20036;-66
2023/10/30 03:17:04;;;;;;;6.22;2.00;;;9.60;99.90;;;;;;5074482;28;20147;-65
2023/10/30 03:19:30;;;;;;;8.00;2.40;;;9.50;99.90;;;;;;5073618;28;20060;-65
2023/10/30 03:21:56;;;;;;;10.07;2.28;;;9.40;99.90;;;;;;5091379;28;20444;-65
2023/10/30 03:24:22;;;;;;;4.05;2.00;;;9.50;99.90;;;;;;5074407;28;20048;-65
2023/10/30 03:26:50;;;;;;;6.18;2.20;;;9.50;99.90;;;;;;5107862;28;20040;-65
2023/10/30 03:29:17;;;;;;;6.10;1.95;;;9.50;99.90;;;;;;5072966;28;20543;-65
2023/10/30 03:31:43;;;;;;;7.88;1.90;;;9.50;99.90;;;;;;5107624;28;20044;-67
2023/10/30 03:34:10;;;;;;;8.73;2.58;;;9.40;99.90;;;;;;5073588;28;20105;-67
2023/10/30 03:36:36;;;;;;;7.57;1.88;;;9.40;99.90;;;;;;5107896;28;20052;-66
2023/10/30 03:39:04;;;;;;;7.90;2.13;;;9.50;99.90;;;;;;5073549;28;20326;-65
2023/10/30 03:41:30;;;;;;;5.97;2.30;;;9.50;99.90;;;;;;5091681;28;20063;-66
2023/10/30 03:43:57;;;;;;;5.40;2.05;;;9.50;99.90;;;;;;5073736;28;20052;-65
2023/10/30 03:46:23;;;;;;;9.15;2.13;;;9.40;99.90;;;;;;5073605;28;20055;-65
2023/10/30 03:48:49;;;;;;;7.32;2.38;;;9.30;99.90;;;;;;5073320;28;20456;-66
2023/10/30 03:51:16;;;;;;;7.57;2.10;;;9.40;99.90;;;;;;5106609;28;20052;-66
2023/10/30 03:53:42;;;;;;;5.78;1.90;;;9.40;99.90;;;;;;5073479;28;20048;-66
2023/10/30 03:56:08;;;;;;;8.25;2.40;;;9.30;99.90;;;;;;5090725;28;20113;-65
2023/10/30 03:58:35;;;;;;;6.43;2.28;;;9.40;99.90;;;;;;5072718;28;20048;-64
2023/10/30 04:01:08;;;;;;;9.23;2.03;;;9.50;99.90;;;;;;5073176;28;20118;-65
2023/10/30 04:03:34;;;;;;;6.40;2.00;;;9.50;99.90;;;;;;5073879;28;20059;-64
2023/10/30 04:06:02;;;;;;;7.45;2.35;;;9.40;99.90;;;;;;5072605;28;20040;-64
2023/10/30 04:08:28;;;;;;;7.43;2.50;;;9.50;99.90;;;;;;5072498;28;20055;-65
2023/10/30 04:10:55;;;;;;;7.43;2.08;;;9.40;99.90;;;;;;5072596;28;20062;-65
2023/10/30 04:13:21;;;;;;;11.10;2.42;;;9.50;99.90;;;;;;5073224;28;20050;-64
2023/10/30 04:15:47;;;;;;;7.65;1.70;;;9.40;99.90;;;;;;5073200;28;20513;-66
2023/10/30 04:18:14;;;;;;;5.10;1.92;;;9.40;99.90;;;;;;5072290;28;20056;-65
2023/10/30 04:20:40;;;;;;;6.68;2.33;;;9.40;99.90;;;;;;5072334;28;20052;-65
2023/10/30 04:23:06;;;;;;;4.75;1.75;;;9.30;99.90;;;;;;5073201;28;20139;-65
2023/10/30 04:25:32;;;;;;;7.63;2.55;;;9.30;99.90;;;;;;5073304;28;20383;-64
2023/10/30 04:27:59;;;;;;;8.60;2.20;;;9.30;99.90;;;;;;5072943;28;20067;-65
2023/10/30 04:30:25;;;;;;;8.63;2.50;;;9.40;99.90;;;;;;5055476;28;20055;-66
2023/10/30 04:32:51;;;;;;;9.90;2.45;;;9.40;99.90;;;;;;5056098;28;20051;-66
2023/10/30 04:35:17;;;;;;;7.07;2.53;;;9.40;99.90;;;;;;5055944;28;20116;-66
2023/10/30 04:37:44;;;;;;;5.38;1.63;;;9.40;99.90;;;;;;5106204;28;20051;-65
2023/10/30 04:40:10;;;;;;;7.38;2.08;;;9.30;99.90;;;;;;5071293;28;20078;-66
2023/10/30 04:42:36;;;;;;;8.10;2.13;;;9.30;99.90;;;;;;5072667;28;20181;-66
2023/10/30 04:45:03;;;;;;;8.88;2.40;;;9.30;99.90;;;;;;5072246;28;20353;-67
2023/10/30 04:47:29;;;;;;;6.88;2.00;;;9.20;99.90;;;;;;5072327;28;20040;-66
2023/10/30 04:49:55;;;;;;;7.35;2.85;;;9.30;99.90;;;;;;5054976;28;20056;-66
2023/10/30 04:52:23;;;;;;;4.53;2.03;;;9.30;99.90;;;;;;5105912;28;20046;-66
2023/10/30 04:54:49;;;;;;;7.43;2.25;;;9.20;99.90;;;;;;5072541;28;20058;-68
2023/10/30 04:57:16;;;;;;;6.93;1.80;;;9.30;99.90;;;;;;5089047;28;20498;-66
2023/10/30 04:59:42;;;;;;;9.27;2.28;;;9.20;99.90;;;;;;5071338;28;20082;-65
2023/10/30 05:02:08;;;;;;;8.30;1.73;;;9.20;99.90;;;;;;5071768;28;20579;-66
2023/10/30 05:04:34;;;;;;;6.78;1.88;;;9.20;99.90;;;;;;5072813;28;20105;-66
2023/10/30 05:07:01;;;;;;;5.75;2.25;;;9.20;99.90;;;;;;5105761;28;20148;-65
2023/10/30 05:09:27;;;;;;;8.48;2.28;;;9.20;99.90;;;;;;5089578;28;20047;-66
2023/10/30 05:11:54;;;;;;;10.60;2.30;;;9.10;99.90;;;;;;5071995;28;20047;-64
2023/10/30 05:14:20;;;;;;;7.22;2.17;;;9.20;99.90;;;;;;5072334;28;20055;-66
2023/10/30 05:16:47;;;;;;;8.82;2.33;;;9.10;99.90;;;;;;5072233;28;20048;-65
2023/10/30 05:19:13;;;;;;;11.05;2.03;;;9.10;99.90;;;;;;5074414;28;20055;-63
2023/10/30 05:21:39;;;;;;;7.78;2.47;;;9.10;99.90;;;;;;5110004;28;20063;-63
2023/10/30 05:24:06;;;;;;;7.45;2.22;;;9.10;99.90;;;;;;5076276;28;20052;-64
2023/10/30 05:26:32;;;;;;;5.97;1.80;;;9.10;99.90;;;;;;5109937;28;20522;-63
2023/10/30 05:28:59;;;;;;;6.00;2.00;;;9.00;99.90;;;;;;5074690;28;20047;-63
2023/10/30 05:31:25;;;;;;;10.82;2.22;;;9.00;99.90;;;;;;5075797;28;20051;-63
2023/10/30 05:33:52;;;;;;;9.45;2.13;;;9.00;99.90;;;;;;5076182;28;20055;-63
2023/10/30 05:36:18;;;;;;;7.35;1.90;;;9.10;99.90;;;;;;5075727;28;20052;-63
2023/10/30 05:38:44;;;;;;;9.70;2.78;;;9.10;99.90;;;;;;5075844;28;20044;-63
2023/10/30 05:41:11;;;;;;;6.55;2.03;;;9.10;99.90;;;;;;5109293;28;20051;-63
2023/10/30 05:43:37;;;;;;;6.50;2.08;;;9.20;99.90;;;;;;5076096;28;20108;-63
2023/10/30 05:46:03;;;;;;;8.73;2.33;;;9.10;99.90;;;;;;5109527;28;20089;-63
2023/10/30 05:48:29;;;;;;;4.97;2.08;;;9.20;99.90;;;;;;5108763;28;20051;-63
2023/10/30 05:50:56;;;;;;;5.78;2.00;;;8.90;99.90;;;;;;5075320;28;20052;-63
2023/10/30 05:53:22;;;;;;;5.95;2.00;;;9.00;99.90;;;;;;5075517;28;20067;-64
2023/10/30 05:55:48;;;;;;;6.65;2.45;;;9.10;99.90;;;;;;5073477;28;20510;-63
2023/10/30 05:58:14;;;;;;;8.43;2.35;;;9.00;99.90;;;;;;5071730;28;20521;-63
2023/10/30 06:00:42;;;;;;;11.40;2.50;;;9.10;99.90;;;;;;5074491;28;20036;-64
2023/10/30 06:03:13;;;;;;;7.57;2.20;;;9.10;99.90;;;;;;5071955;28;20345;-63
2023/10/30 06:05:39;;;;;;;6.95;2.10;;;9.10;99.90;;;;;;5064364;28;20075;-63
2023/10/30 06:08:06;;;;;;;7.95;2.30;;;9.20;99.90;;;;;;5072576;28;20067;-64
2023/10/30 06:10:32;;;;;;;7.68;2.75;;;9.20;99.90;;;;;;5055405;28;20048;-63
2023/10/30 06:12:58;;;;;;;8.55;2.42;;;9.20;99.90;;;;;;5054889;28;20453;-63
2023/10/30 06:15:25;;;;;;;10.52;2.15;;;9.10;99.90;;;;;;5058344;28;20368;-63
2023/10/30 06:17:51;;;;;;;7.57;2.20;;;9.10;99.90;;;;;;5073925;28;20064;-63
2023/10/30 06:20:17;;;;;;;9.45;2.30;;;9.30;99.90;;;;;;5072380;28;20343;-63
2023/10/30 06:22:44;;;;;;;6.15;1.80;;;9.30;99.90;;;;;;5074499;28;20048;-64
2023/10/30 06:25:16;;;;;;;10.05;2.47;;;9.20;99.90;;;;;;5074619;28;20055;-63
2023/10/30 06:27:43;;;;;;;7.88;2.20;;;9.20;99.90;;;;;;5074493;28;20411;-63
2023/10/30 06:30:12;;;;;;;8.82;2.30;;;9.20;99.90;;;;;;5058170;28;20275;-63
2023/10/30 06:32:38;;;;;;;9.75;3.20;;;9.30;99.90;;;;;;5054945;28;20106;-63
2023/10/30 06:35:07;;;;;;;7.97;2.10;;;9.30;99.90;;;;;;5057163;28;20051;-63
2023/10/30 06:37:33;;;;;;;8.90;2.13;;;9.30;99.90;;;;;;5075215;28;20075;-62
2023/10/30 06:39:59;;;;;;;5.57;2.10;;;9.40;99.90;;;;;;5074035;28;20060;-63
2023/10/30 06:42:26;;;;;;;8.07;2.00;;;9.30;99.90;;;;;;5074722;28;20509;-63
2023/10/30 06:44:52;;;;;;;10.43;2.67;;;9.40;99.90;;;;;;5074593;28;20056;-65
2023/10/30 06:47:18;;;;;;;8.38;2.70;;;9.30;99.90;;;;;;5074339;28;20119;-63
2023/10/30 06:49:47;;;;;;;7.93;2.40;;;9.40;99.90;;;;;;5074305;28;20108;-64
2023/10/30 06:52:13;;;;;;;6.60;2.13;;;9.40;99.90;;;;;;5108309;28;20063;-63
2023/10/30 06:54:40;;;;;;;5.03;2.30;;;9.50;99.90;;;;;;5073301;28;20448;-63
2023/10/30 06:57:06;;;;;;;9.15;2.67;;;9.30;99.90;;;;;;5073039;28;20060;-63
2023/10/30 06:59:32;;;;;;;5.32;2.15;;;9.50;99.90;;;;;;5069286;28;20047;-64
2023/10/30 07:01:59;;;;;;;6.45;2.42;;;9.50;99.90;;;;;;5072299;28;20040;-63
2023/10/30 07:04:25;;;;;;;10.43;2.17;;;9.50;99.90;;;;;;5073079;28;20109;-64
2023/10/30 07:06:51;;;;;;;11.65;3.33;;;9.40;99.90;;;;;;5056176;28;20036;-63
2023/10/30 07:09:18;;;;;;;8.30;2.53;;;9.60;99.90;;;;;;5072517;28;20055;-64
2023/10/30 07:11:44;;;;;;;12.50;4.45;;;9.50;99.90;;;;;;5071688;28;20044;-65
2023/10/30 07:14:10;;;;;;;6.35;2.50;;;9.50;99.90;;;;;;5073770;28;20048;-63
2023/10/30 07:16:36;;;;;;;9.00;2.67;;;9.60;99.90;;;;;;5070739;28;20127;-64
2023/10/30 07:19:04;;;;;;;7.93;2.97;;;9.80;99.90;;;;;;5070194;28;20095;-64
2023/10/30 07:21:30;;;;;;;8.80;3.28;;;9.70;99.90;;;;;;5070714;28;20047;-65
2023/10/30 07:23:59;;;;;;;7.25;2.78;;;9.60;99.90;;;;;;5072831;28;20048;-65
2023/10/30 07:26:25;;;;;;;11.02;2.35;;;9.90;99.90;;;;;;5056968;28;20039;-64
2023/10/30 07:28:52;;;;;;;9.43;2.53;;;9.80;99.90;;;;;;5069555;28;20099;-64
2023/10/30 07:31:18;;;;;;;5.50;2.10;;;10.00;99.90;;;;;;5053332;28;20049;-63
2023/10/30 07:33:45;;;;;;;8.68;2.20;;;10.00;99.90;;;;;;5066712;28;20056;-64
2023/10/30 07:36:12;;;;;;;9.20;2.75;;;10.00;99.90;;;;;;5058799;28;20036;-64
2023/10/30 07:38:38;;;;;;;9.75;2.22;;;10.20;99.90;;;;;;5075389;28;20044;-64
2023/10/30 07:41:05;;;;;;;8.15;2.25;;;10.30;99.90;;;;;;5074598;28;20514;-64
2023/10/30 07:43:32;;;;;;;7.05;2.15;;;10.20;99.90;;;;;;5073057;28;20067;-64
2023/10/30 07:45:59;;;;;;;8.88;2.20;;;10.30;99.90;;;;;;5038588;28;20048;-64
2023/10/30 07:48:28;;;;;;;5.03;2.20;;;10.40;99.90;;;;;;5074450;28;20116;-64
2023/10/30 07:50:54;;;;;;;4.40;2.10;;;10.40;99.90;;;;;;5074701;28;20071;-64
2023/10/30 07:53:21;;;;;;;9.73;1.92;;;10.60;99.90;;;;;;5100944;28;20036;-63
2023/10/30 07:55:47;;;;;;;8.77;2.40;;;10.70;99.90;;;;;;5075309;28;20058;-63
2023/10/30 07:58:14;;;;;;;9.88;3.10;;;10.60;99.90;;;;;;5092074;28;20063;-63
2023/10/30 08:00:41;;;;;;;6.15;2.22;;;10.70;99.90;;;;;;5055481;28;20492;-63
2023/10/30 08:03:07;;;;;;;9.80;2.45;;;10.90;99.90;;;;;;5054827;28;20056;-64
2023/10/30 08:05:34;;;;;;;9.10;2.55;;;10.90;99.90;;;;;;5055099;28;20074;-63
2023/10/30 08:08:00;;;;;;;8.43;2.85;;;10.90;99.90;;;;;;5054843;28;20045;-63
2023/10/30 08:10:27;;;;;;;8.13;2.35;;;11.10;99.90;;;;;;5090354;28;20056;-64
2023/10/30 08:12:53;;;;;;;8.48;2.40;;;11.10;99.90;;;;;;5074774;28;20058;-63
2023/10/30 08:15:19;;;;;;;8.07;2.40;;;11.30;99.90;;;;;;5074922;28;20384;-63
2023/10/30 08:17:45;;;;;;;10.48;2.63;;;11.20;99.90;;;;;;5074934;28;20047;-63
2023/10/30 08:20:12;;;;;;;8.00;2.80;;;11.30;99.90;;;;;;5074196;28;20079;-63
2023/10/30 08:22:38;;;;;;;11.25;2.60;;;11.40;99.90;;;;;;5074354;28;20332;-64
2023/10/30 08:25:05;;;;;;;8.18;3.00;;;11.40;99.90;;;;;;5108386;28;20056;-64
2023/10/30 08:27:33;;;;;;;8.65;2.13;;;11.40;99.90;;;;;;5074362;28;20052;-63
2023/10/30 08:30:00;;;;;;;10.30;2.47;;;11.70;99.90;;;;;;5073810;28;20437;-63
2023/10/30 08:32:26;;;;;;;13.80;2.50;;;11.70;99.90;;;;;;5074446;28;20048;-64
2023/10/30 08:34:54;;;;;;;9.43;2.70;;;11.70;99.90;;;;;;5074314;28;20051;-63
2023/10/30 08:37:21;;;;;;;8.07;3.13;;;11.80;99.90;;;;;;5074296;28;20063;-64
2023/10/30 08:39:47;;;;;;;13.52;2.42;;;11.90;99.90;;;;;;5073498;28;20083;-63
2023/10/30 08:42:13;;;;;;;9.30;2.75;;;12.00;99.90;;;;;;5074127;28;20063;-64
2023/10/30 08:44:39;;;;;;;9.32;2.75;;;12.00;99.90;;;;;;5067037;28;20044;-63
2023/10/30 08:47:06;;;;;;;7.28;2.13;;;12.10;99.90;;;;;;5054017;28;20056;-63
2023/10/30 08:49:32;;;;;;;6.15;2.33;;;12.20;99.90;;;;;;5053714;28;20040;-64
2023/10/30 08:51:59;;;;;;;7.72;2.00;;;12.40;99.90;;;;;;5053555;28;20048;-64
2023/10/30 08:54:26;;;;;;;6.00;2.08;;;12.40;99.90;;;;;;5053007;28;20052;-63
2023/10/30 08:56:52;;;;;;;5.35;2.42;;;12.50;99.90;;;;;;5053831;28;20052;-64
2023/10/30 08:59:18;;;;;;;10.82;2.67;;;12.60;99.90;;;;;;5053419;28;20048;-64
2023/10/30 09:01:45;;;;;;;8.18;2.63;;;12.70;99.90;;;;;;5053918;28;20048;-64
2023/10/30 09:04:11;;;;;;;10.43;3.35;;;12.70;99.90;;;;;;5048718;28;20052;-64
2023/10/30 09:06:37;;;;;;;9.23;2.90;;;12.90;99.90;;;;;;5061875;28;20052;-64
2023/10/30 09:09:05;;;;;;;13.38;2.65;;;12.90;99.90;;;;;;5052339;28;20049;-63
2023/10/30 09:11:31;;;;;;;8.75;2.47;;;13.00;99.90;;;;;;5053801;28;20048;-64
2023/10/30 09:13:58;;;;;;;7.82;2.65;;;13.10;99.90;;;;;;5053896;28;20063;-63
2023/10/30 09:16:24;;;;;;;5.40;2.20;;;13.20;99.90;;;;;;5053465;28;20491;-64
2023/10/30 09:18:52;;;;;;;5.88;2.05;;;13.30;99.90;;;;;;5053737;28;20445;-63
2023/10/30 09:21:19;;;;;;;9.63;2.92;;;13.30;99.90;;;;;;5053299;28;20044;-64
2023/10/30 09:23:46;;;;;;;6.13;2.22;;;13.40;99.90;;;;;;5053844;28;20064;-63
2023/10/30 09:26:14;;;;;;;7.38;2.20;;;13.50;99.90;;;;;;5053476;28;20041;-63
2023/10/30 09:28:41;;;;;;;9.85;2.50;;;13.40;99.90;;;;;;5053190;28;20117;-64
2023/10/30 09:31:07;;;;;;;8.25;3.20;;;13.50;99.90;;;;;;5053351;28;20072;-64
2023/10/30 09:33:33;;;;;;;10.18;2.88;;;13.40;99.90;;;;;;5053610;28;20087;-64
2023/10/30 09:36:00;;;;;;;10.25;2.30;;;13.30;99.90;;;;;;5053372;28;20056;-64
2023/10/30 09:38:26;;;;;;;8.80;2.75;;;13.30;99.90;;;;;;5050848;28;20057;-64
2023/10/30 09:41:02;;;;;;;7.60;2.67;;;13.20;99.90;;;;;;5053341;28;20376;-63
2023/10/30 09:43:28;;;;;;;7.85;2.42;;;13.00;99.90;;;;;;5053887;28;20067;-64
2023/10/30 09:45:58;;;;;;;6.32;2.10;;;13.00;99.90;;;;;;5036278;28;20056;-63
2023/10/30 09:48:25;;;;;;;8.98;2.40;;;12.90;99.90;;;;;;5033785;28;20129;-64
2023/10/30 09:50:52;;;;;;;6.75;2.60;;;12.70;99.90;;;;;;5053092;28;20052;-64
2023/10/30 09:53:19;;;;;;;9.55;3.45;;;12.80;99.90;;;;;;5036685;28;20468;-63
2023/10/30 09:55:47;;;;;;;8.55;2.58;;;12.60;99.90;;;;;;5036913;28;20044;-64
2023/10/30 09:58:15;;;;;;;6.78;3.00;;;12.60;99.90;;;;;;5053477;28;20167;-64
2023/10/30 10:00:46;;;;;;;11.38;3.25;;;12.60;99.90;;;;;;5034432;28;20049;-63
2023/10/30 10:03:12;;;;;;;10.23;2.50;;;12.50;99.90;;;;;;5033466;28;20065;-64
2023/10/30 10:05:38;;;;;;;7.57;2.35;;;12.50;99.90;;;;;;5036506;28;20401;-63
2023/10/30 10:08:05;;;;;;;8.27;2.38;;;12.70;99.90;;;;;;5037122;28;20304;-64
2023/10/30 10:11:05;;;;;;;7.90;2.38;;;12.70;99.90;;;;;;5053790;28;20047;-64
2023/10/30 10:13:33;;;;;;;8.20;2.60;;;12.80;99.90;;;;;;5014780;28;20064;-64
2023/10/30 10:16:01;;;;;;;7.60;2.10;;;12.90;99.90;;;;;;5057009;28;20427;-63
2023/10/30 10:18:33;;;;;;;8.32;2.55;;;12.80;99.90;;;;;;5040539;28;20067;-64
2023/10/30 10:21:11;;;;;;;11.88;3.20;;;12.80;99.90;;;;;;5054293;28;20118;-63
2023/10/30 10:23:38;;;;;;;9.23;2.28;;;12.80;99.90;;;;;;5036843;28;20418;-63
2023/10/30 10:26:13;;;;;;;9.00;2.25;;;12.90;99.90;;;;;;5036912;28;20438;-64
2023/10/30 10:28:41;;;;;;;8.80;2.88;;;12.90;99.90;;;;;;5040865;28;20044;-64
2023/10/30 10:31:07;;;;;;;9.07;2.80;;;13.00;99.90;;;;;;5058737;28;20048;-64
2023/10/30 10:33:35;;;;;;;9.38;2.63;;;13.20;99.90;;;;;;5056851;28;20045;-64
2023/10/30 10:36:04;;;;;;;7.68;2.28;;;13.30;99.90;;;;;;5056642;28;20426;-64
2023/10/30 10:38:31;;;;;;;7.70;2.67;;;13.30;99.90;;;;;;5056776;28;20068;-63
2023/10/30 10:40:58;;;;;;;7.05;2.20;;;13.30;99.90;;;;;;5075285;28;20052;-64
2023/10/30 10:43:27;;;;;;;7.90;2.10;;;13.40;99.90;;;;;;5055632;28;20654;-64
2023/10/30 10:45:55;;;;;;;8.55;2.75;;;13.30;99.90;;;;;;5079013;28;20059;-64
2023/10/30 10:48:24;;;;;;;8.32;2.58;;;13.30;99.90;;;;;;5090257;28;20051;-64
2023/10/30 10:50:50;;;;;;;9.68;2.72;;;13.30;99.90;;;;;;5092584;28;20059;-65
2023/10/30 10:53:23;;;;;;;9.88;2.45;;;13.30;99.90;;;;;;5096396;28;20054;-64
2023/10/30 10:55:50;;;;;;;8.02;2.45;;;13.40;99.90;;;;;;5096582;28;20048;-64
2023/10/30 10:58:41;;;;;;;7.80;2.05;;;13.50;99.90;;;;;;5096292;28;20054;-63
2023/10/30 11:01:10;;;;;;;8.73;2.38;;;13.50;99.90;;;;;;5076054;28;20109;-63
2023/10/30 11:03:37;;;;;;;9.98;3.10;;;13.60;99.90;;;;;;5094374;28;20051;-62
2023/10/30 11:06:06;;;;;;;10.63;2.85;;;13.60;99.90;;;;;;5095906;28;20100;-63
2023/10/30 11:08:50;;;;;;;6.90;2.42;;;13.60;99.90;;;;;;5096370;27;20043;-63
2023/10/30 11:11:29;;;;;;;7.45;2.28;;;13.60;99.90;;;;;;5116442;27;20047;-64
2023/10/30 11:14:05;;;;;;;6.60;2.78;;;13.50;99.90;;;;;;5116199;27;20115;-63
2023/10/30 11:16:40;;;;;;;10.45;2.50;;;13.40;99.90;;;;;;5114622;27;20062;-64
2023/10/30 11:19:07;;;;;;;5.40;2.10;;;13.40;99.90;;;;;;5093971;28;20051;-64
2023/10/30 11:21:35;;;;;;;9.35;2.25;;;13.40;99.90;;;;;;5096351;28;20058;-63
2023/10/30 11:24:03;;;;;;;9.32;3.00;;;13.40;99.90;;;;;;5079500;28;20054;-64
2023/10/30 11:26:29;;;;;;;8.55;2.53;;;13.50;99.90;;;;;;5096332;28;20382;-64
2023/10/30 11:28:57;;;;;;;12.57;2.70;;;13.60;99.90;;;;;;5079765;28;20086;-64
2023/10/30 11:31:24;;;;;;;6.68;2.25;;;13.60;99.90;;;;;;5096408;28;20056;-64
2023/10/30 11:33:50;;;;;;;7.43;2.10;;;13.70;99.90;;;;;;5095980;28;20040;-64
2023/10/30 11:36:17;;;;;;;7.50;2.70;;;13.70;99.90;;;;;;5096074;28;20047;-63
2023/10/30 11:38:47;;;;;;;10.68;2.67;;;13.80;99.90;;;;;;5097382;27;20070;-63
2023/10/30 11:41:16;;;;;;;6.30;2.00;;;13.90;99.90;;;;;;5112608;28;20043;-63
2023/10/30 11:43:44;;;;;;;8.60;2.05;;;13.90;99.90;;;;;;5095859;28;20055;-63
2023/10/30 11:46:13;;;;;;;7.05;2.45;;;13.90;99.90;;;;;;5094798;28;20047;-63
2023/10/30 11:48:40;;;;;;;7.05;2.20;;;13.80;99.90;;;;;;5096132;27;20066;-64
2023/10/30 11:51:12;;;;;;;9.20;2.47;;;13.90;99.90;;;;;;5090131;28;20129;-64
2023/10/30 11:53:42;;;;;;;;;;;13.90;99.90;;;;;;5095639;28;20063;-63
2023/10/30 11:56:09;;;;;;;5.97;2.33;;;13.90;99.90;;;;;;5090230;28;20163;-64
2023/10/30 11:58:35;;;;;;;6.75;2.83;;;14.00;99.90;;;;;;5077601;28;20418;-64
2023/10/30 12:01:05;;;;;;;8.75;2.60;;;13.90;99.90;;;;;;5095310;28;20051;-65
2023/10/30 12:03:32;;;;;;;8.57;2.65;;;14.00;99.90;;;;;;5076910;28;20044;-64
2023/10/30 12:05:58;;;;;;;10.18;2.45;;;14.10;99.90;;;;;;5078236;28;20062;-63
2023/10/30 12:08:24;;;;;;;9.50;2.47;;;14.10;99.90;;;;;;5093352;28;20062;-64
2023/10/30 12:10:51;;;;;;;10.48;2.75;;;14.10;99.90;;;;;;5112064;27;20066;-63
2023/10/30 12:13:18;;;;;;;13.45;2.92;;;14.10;99.90;;;;;;5095443;28;20040;-63
2023/10/30 12:15:45;;;;;;;7.95;2.13;;;14.10;99.90;;;;;;5095180;28;20127;-63
2023/10/30 12:18:11;;;;;;;14.02;2.85;;;14.20;99.90;;;;;;5095397;28;20059;-63
2023/10/30 12:20:38;;;;;;;11.00;3.17;;;14.20;99.90;;;;;;5095300;27;20476;-64
2023/10/30 12:23:08;;;;;;;6.13;2.30;;;14.20;99.90;;;;;;5105449;28;20052;-63
2023/10/30 12:25:35;;;;;;;8.80;2.40;;;14.20;99.90;;;;;;5092768;28;20055;-63
2023/10/30 12:28:03;;;;;;;7.75;2.42;;;14.20;99.90;;;;;;5095051;28;20043;-63
2023/10/30 12:30:34;;;;;;;6.80;2.58;;;14.20;99.90;;;;;;5110876;27;20039;-63
2023/10/30 12:33:01;;;;;;;9.13;2.58;;;14.20;99.90;;;;;;5106401;28;20039;-63
2023/10/30 12:35:27;;;;;;;7.68;2.55;;;14.20;99.90;;;;;;5095227;28;20051;-64
2023/10/30 12:37:54;;;;;;;7.45;3.08;;;14.30;99.90;;;;;;5094983;28;20129;-64
2023/10/30 12:40:21;;;;;;;8.20;2.83;;;14.30;99.90;;;;;;5092638;27;20448;-63
2023/10/30 12:42:48;;;;;;;8.73;3.13;;;14.20;99.90;;;;;;5099122;28;20047;-63
2023/10/30 12:45:17;;;;;;;11.85;2.13;;;14.30;99.90;;;;;;5094938;28;20048;-64
2023/10/30 12:47:45;;;;;;;8.70;2.35;;;14.30;99.90;;;;;;5094688;28;20048;-63
2023/10/30 12:50:13;;;;;;;7.07;3.00;;;14.30;99.90;;;;;;5080810;28;20085;-63
2023/10/30 12:52:41;;;;;;;7.40;2.25;;;14.30;99.90;;;;;;5074132;28;20056;-63